Table Name: State3_h

TimeStamp Record AirTF_Avg WindCh_Avg HeatIn_Avg AirTD_F_Avg RH BP_mbar_Avg Rain_in_Tot Wnd_mph WindDir NetSW_Avg NetLW_Avg NetRad_Avg AirF_0m_Avg Snow_Dp Soil_temp_Avg VWC_Avg
2022-12-03 23:00:00.0 23892 27.25 27.25 27.25 23.87 88.1 1030.77 0 0 307.3 -4.015 -20.05 -24.06 24.41 66 NAN NAN
2022-12-04 00:00:00.0 23893 26.01 26.01 26.01 23.24 89.8 1031.082 0 0 328.4 -4.191 -9.45 -13.64 23.31 66 NAN NAN
2022-12-04 01:00:00.0 23894 25.14 25.14 25.14 22.7 90.9 1031.066 0 0 333.4 -4.632 -5.626 -10.26 22.55 66 NAN NAN
2022-12-04 02:00:00.0 23895 23.55 23.55 23.55 21.32 91.5 1030.543 0 0 232.4 -4.721 -4.289 -9.01 21.2 66 NAN NAN
2022-12-04 03:00:00.0 23896 22.59 22.59 22.59 20.52 92.4 1030.682 0 0 334.8 -4.761 -3.539 -8.3 19.98 66 NAN NAN
2022-12-04 04:00:00.0 23897 21.81 21.81 21.81 19.87 91.1 1030.407 0 0 249.9 -4.212 -3.14 -7.352 18.65 66 NAN NAN
2022-12-04 05:00:00.0 23898 20.67 20.67 20.67 18.72 92.1 1030.241 0 0 249.6 -4.368 -3.066 -7.435 17.66 66 NAN NAN
2022-12-04 06:00:00.0 23899 20.44 20.44 20.44 18.56 92.5 1029.999 0 0 251.7 -3.858 -2.902 -6.76 17.27 66 NAN NAN
2022-12-04 07:00:00.0 23900 19.29 19.29 19.29 17.36 91.8 1029.768 0 0 251.7 -4.323 -2.805 -7.128 16.7 66 NAN NAN
2022-12-04 08:00:00.0 23901 18.85 18.85 18.85 16.94 91.9 1029.137 0 0 251.5 -2.257 -2.574 -4.831 16.07 66 NAN NAN
2022-12-04 09:00:00.0 23902 18.97 18.97 18.97 17.04 92.1 1029.335 0 0 226.6 16.5 -2.617 13.88 17.25 66 NAN NAN
2022-12-04 10:00:00.0 23903 25.31 25.31 25.31 23.07 86.1 1029.249 0 0 18.18 129.2 -1.724 127.4 23.79 66 NAN NAN
2022-12-04 11:00:00.0 23904 30.98 30.98 30.98 23.94 63.62 1028.92 0 0 215.4 211.6 -56.92 154.7 30.33 66 NAN NAN
2022-12-04 12:00:00.0 23905 33.54 33.54 33.54 21.67 58.62 1028.067 0 0 215.4 275.9 -102 173.9 34.19 66 NAN NAN
2022-12-04 13:00:00.0 23906 36.82 36.82 36.82 18.41 41.69 1027.408 0 0 226.8 257.9 -111.9 146 38.9 66 NAN NAN
2022-12-04 14:00:00.0 23907 38.89 38.89 38.89 15.62 34.93 1026.326 0 0 256 244.1 -115.3 128.8 42.32 66 NAN NAN
2022-12-04 15:00:00.0 23908 40.5 40.5 40.5 13.93 32.63 1025.064 0 0.044 223.2 197.6 -110.3 87.3 42.94 66 NAN NAN
2022-12-04 16:00:00.0 23909 41.48 41.48 41.48 12.26 28.26 1025.101 0 0 256.1 124.4 -103.8 20.57 42.22 66 NAN NAN
2022-12-04 17:00:00.0 23910 40.54 40.54 40.54 12.01 33.68 1024.689 0 0 204.4 38.38 -89.5 -51.08 40.51 66 NAN NAN
2022-12-04 18:00:00.0 23911 33.6 33.6 33.6 17.56 63.12 1024.476 0 0 280.1 -3.646 -71.39 -75.04 33.17 66 NAN NAN
2022-12-04 19:00:00.0 23912 28.21 28.21 28.21 19.91 73.16 1024.702 0 0 280.1 -4.166 -66.88 -71.04 26 66 NAN NAN
2022-12-04 20:00:00.0 23913 25.85 25.85 25.85 19.6 80.3 1024.513 0 0 280 -3.955 -65.75 -69.7 22.96 66 NAN NAN
2022-12-04 21:00:00.0 23914 24.28 24.28 24.28 19.52 83.2 1024.257 0 0 279.1 -3.625 -62.46 -66.08 21.19 66 NAN NAN
2022-12-04 22:00:00.0 23915 23.06 23.06 23.06 19.02 84.8 1024.069 0 0 296.5 -3.724 -60.18 -63.91 20.09 66 NAN NAN
2022-12-04 23:00:00.0 23916 21.5 21.5 21.5 18.06 87.3 1023.671 0 0 296.4 -3.655 -43.43 -47.08 18.47 66 NAN NAN
2022-12-05 00:00:00.0 23917 20.65 20.65 20.65 17.51 87.9 1023.15 0 0 296.4 -3.777 -23.42 -27.19 17.43 66 NAN NAN
2022-12-05 01:00:00.0 23918 19.7 19.7 19.7 16.81 89 1022.817 0 0 296.4 -3.609 -14.72 -18.33 16.72 66 NAN NAN
2022-12-05 02:00:00.0 23919 19.12 19.12 19.12 16.45 89.6 1022.583 0 0 296.4 -3.61 -9.36 -12.97 16.48 66 NAN NAN
2022-12-05 03:00:00.0 23920 18.51 18.51 18.51 16.05 90.1 1022.731 0 0 296.4 -3.362 -7.062 -10.42 15.82 66 NAN NAN
2022-12-05 04:00:00.0 23921 17.88 17.88 17.88 15.59 90.8 1022.295 0 0 296.4 -3.249 -5.512 -8.76 15.12 66 NAN NAN
2022-12-05 05:00:00.0 23922 18.11 18.11 18.11 15.86 90.8 1021.889 0 0 296.4 -3.065 -4.585 -7.65 15.72 66 NAN NAN
2022-12-05 06:00:00.0 23923 18.25 18.25 18.25 16.03 90.9 1021.957 0 0 296.4 -2.672 -3.809 -6.48 16.26 66 NAN NAN
2022-12-05 07:00:00.0 23924 19.16 19.16 19.16 16.95 91 1021.987 0 0 296.4 -2.254 -3.12 -5.374 17.52 66 NAN NAN
2022-12-05 08:00:00.0 23925 19.19 19.19 19.19 16.93 90.9 1022.001 0 0 296.5 -1.289 -3.682 -4.97 17.71 66 NAN NAN
2022-12-05 09:00:00.0 23926 20.43 20.43 20.43 18.21 91 1021.523 0 0 235.4 16.59 -3.005 13.59 19.28 66 NAN NAN
2022-12-05 10:00:00.0 23927 24.21 24.21 24.21 21.6 88.2 1021.809 0 0 18.36 79.39 -4.452 74.93 23.69 66 NAN NAN
2022-12-05 11:00:00.0 23928 31.48 31.48 31.48 26.22 64.67 1021.682 0 0 256.7 187.1 -40.5 146.6 30.63 66 NAN NAN
2022-12-05 12:00:00.0 23929 38.11 38.11 38.11 24.22 54.22 1020.965 0 0 330.3 207.3 -94.9 112.4 39.34 66 NAN NAN
2022-12-05 13:00:00.0 23930 43.3 43.3 43.3 24.56 41.37 1019.529 0 0 168.6 219.5 -99.9 119.6 46.23 66 NAN NAN
2022-12-05 14:00:00.0 23931 47.8 47.8 47.8 20.72 28.9 1018.471 0 1.052 190.8 194.6 -84.3 110.2 50.71 66 NAN NAN
2022-12-05 15:00:00.0 23932 49.65 49.65 49.65 15.74 22.92 1017.821 0 0 206.3 109.4 -59.93 49.5 51.72 66 NAN NAN
2022-12-05 16:00:00.0 23933 49.26 49.26 49.26 12.75 24.97 1017.526 0 0 175.5 54.12 -30.24 23.88 50.46 66 NAN NAN
2022-12-05 17:00:00.0 23934 47.78 47.78 47.78 16.54 32.11 1017.442 0 0 203 18.42 -44.01 -25.59 47.93 66 NAN NAN
2022-12-05 18:00:00.0 23935 43.74 43.74 43.74 21.84 54.36 1017.764 0 0 112.4 -0.054 -10.12 -10.17 43.77 66 NAN NAN
2022-12-05 19:00:00.0 23936 41.44 41.44 41.44 27.74 62.33 1017.865 0 0 13.68 -1.351 -0.55 -1.902 41.13 66 NAN NAN
2022-12-05 20:00:00.0 23937 41.08 41.08 41.08 32.34 71.07 1017.739 0 0 11.63 0.223 2.533 2.756 40.51 66 NAN NAN
2022-12-05 21:00:00.0 23938 41.26 41.26 41.26 32.77 67.16 1017.587 0 0 5.432 0.324 3.31 3.634 41.22 66 NAN NAN
2022-12-05 22:00:00.0 23939 41.75 41.75 41.75 32.8 71.72 1017.12 0 0 5.338 0.387 4.268 4.655 41.79 66 NAN NAN
2022-12-05 23:00:00.0 23940 42.08 42.08 42.08 33.55 71.72 1017.021 0 0 207.8 0.311 3.673 3.985 42.17 66 NAN NAN
2022-12-06 00:00:00.0 23941 42.3 42.3 42.3 33.51 69.78 1017.548 0 0 325.3 0.324 3.244 3.568 42.46 66 NAN NAN
2022-12-06 01:00:00.0 23942 42.17 42.17 42.17 34.46 77.54 1017.556 0 0 37.23 -1.328 -0.096 -1.423 41.96 66 NAN NAN
2022-12-06 02:00:00.0 23943 41.91 41.91 41.91 35.81 78.71 1017.516 0 0 239.4 0.489 4.315 4.804 41.84 66 NAN NAN
2022-12-06 03:00:00.0 23944 45.1 45.1 45.1 37.82 74.06 1017.598 0 0 179.8 0.492 2.938 3.43 44.14 66 NAN NAN
2022-12-06 04:00:00.0 23945 46.81 46.81 46.81 40.18 82.6 1017.657 0 0 150.1 -0.833 0.262 -0.571 46.55 66 NAN NAN
2022-12-06 05:00:00.0 23946 45.94 45.94 45.94 41.75 87.2 1017.704 0 0 194.9 -0.755 0.818 0.063 45.57 66 NAN NAN
2022-12-06 06:00:00.0 23947 45.29 45.29 45.29 41.98 88.9 1017.809 0 0 94 -0.173 1.034 0.861 45.12 66 NAN NAN
2022-12-06 07:00:00.0 23948 44.89 44.89 44.89 41.94 89.4 1018.151 0 0 94.2 0.058 1.286 1.344 44.66 66 NAN NAN
2022-12-06 08:00:00.0 23949 45.21 45.21 45.21 42.43 90.1 1018.307 0 0 233.9 0.681 1.389 2.071 44.94 66 NAN NAN
2022-12-06 09:00:00.0 23950 45.72 45.72 45.72 43.03 90.3 1018.62 0 0 354.5 6.801 0.631 7.432 45.62 66 NAN NAN
2022-12-06 10:00:00.0 23951 47.04 47.04 47.04 44.37 90.4 1018.896 0 0 1.54 24.88 -1.298 23.58 47.15 66 NAN NAN
2022-12-06 11:00:00.0 23952 48.74 48.74 48.74 46.06 90.3 1019.034 0 0 64.88 37.4 -3.124 34.27 49.15 66 NAN NAN
2022-12-06 12:00:00.0 23953 49.85 49.85 49.85 47.06 89.7 1018.549 0 0 50.69 39.59 -4.235 35.35 50.45 66 NAN NAN
2022-12-06 13:00:00.0 23954 51.02 51.02 51.02 47.72 87.3 1017.801 0 0 51.95 32.76 -4.28 28.48 51.6 66 NAN NAN
2022-12-06 14:00:00.0 23955 51.41 51.41 51.41 47.86 88.1 1017.356 0.04 0 78.43 29.1 -1.616 27.48 51.51 66 NAN NAN
2022-12-06 15:00:00.0 23956 51.68 51.68 51.68 48.37 88.7 1017.127 0.01 0 26.16 27.45 -1.076 26.38 51.54 66 NAN NAN
2022-12-06 16:00:00.0 23957 52.03 52.03 52.03 48.91 89.2 1017.18 0.01 0 71.23 20.72 -0.288 20.43 52.19 66 NAN NAN
2022-12-06 17:00:00.0 23958 51.94 51.94 51.94 48.98 89.8 1017.659 0 0 28.16 6.805 1.413 8.22 51.93 66 NAN NAN
2022-12-06 18:00:00.0 23959 51.44 51.44 51.44 48.6 90.1 1017.979 0.01 0 242 0.439 2.953 3.392 51.37 66 NAN NAN
2022-12-06 19:00:00.0 23960 50.99 50.99 50.99 48.28 90.9 1018.349 0 0 313 0.322 3.241 3.564 50.91 66 NAN NAN
2022-12-06 20:00:00.0 23961 52.39 52.39 52.39 49.79 89.6 1018.764 0 0 0.247 0.464 4.435 4.899 52 66 NAN NAN
2022-12-06 21:00:00.0 23962 52.01 52.01 52.01 49.44 91.1 1018.873 0 0 23.54 0.366 3.889 4.255 52.03 66 NAN NAN
2022-12-06 22:00:00.0 23963 51.65 51.65 51.65 49.13 90.9 1018.852 0 0 321.5 0.193 2.446 2.639 51.61 66 NAN NAN